Time;durP1;ratioP1;P1;durP2;ratioP2;P2;SDS_P1;SDS_P2;PMS_P1;PMS_P2;Temp;Humidity;BMP_temperature;BMP_pressure;BME280_temperature;BME280_humidity;BME280_pressure;Samples;Min_cycle;Max_cycle;Signal;HPM_P1;HPM_P2
2022/03/12 00:00:08;;;;;;;4.77;3.37;;;0.60;27.50;;;-0.87;34.62;98329.78;5006307;28;20519;-78
2022/03/12 00:02:36;;;;;;;4.40;3.80;;;0.70;27.60;;;-0.91;34.54;98329.19;5007213;28;20466;-80
2022/03/12 00:05:07;;;;;;;9.23;4.23;;;0.60;27.60;;;-1.28;34.86;98276.72;5018065;28;20476;-76
2022/03/12 00:07:42;;;;;;;6.63;3.93;;;0.60;27.60;;;-1.10;34.70;98327.31;5021932;28;20537;-78
2022/03/12 00:10:13;;;;;;;5.50;4.73;;;0.60;27.60;;;-1.16;34.44;98336.63;5015397;28;20944;-80
2022/03/12 00:12:40;;;;;;;8.50;4.60;;;0.50;27.70;;;-1.26;34.82;98316.34;5010904;28;20938;-80
2022/03/12 00:15:11;;;;;;;6.00;4.17;;;0.50;27.70;;;-1.12;34.67;98347.00;5010244;28;20558;-76
2022/03/12 00:17:39;;;;;;;6.27;4.73;;;0.50;27.70;;;-1.21;34.70;98341.50;5021850;28;20480;-80
2022/03/12 00:20:12;;;;;;;6.50;4.33;;;0.50;27.70;;;-1.26;35.45;98343.72;5002669;28;20559;-78
2022/03/12 00:22:46;;;;;;;6.30;4.33;;;0.40;27.80;;;-1.29;35.55;98347.47;5005131;28;20483;-79
2022/03/12 00:25:16;;;;;;;5.67;3.80;;;0.30;27.80;;;-1.35;35.36;98336.53;5010712;28;20456;-76
2022/03/12 00:27:44;;;;;;;4.93;4.10;;;0.30;27.90;;;-1.36;35.67;98340.16;5007059;28;20793;-77
2022/03/12 00:30:17;;;;;;;8.20;3.90;;;0.30;27.90;;;-1.40;35.67;98338.75;5006168;28;20530;-77
2022/03/12 00:32:47;;;;;;;6.37;4.10;;;0.20;27.90;;;-1.53;35.45;98323.03;5004732;28;20455;-77
2022/03/12 00:35:16;;;;;;;5.87;4.40;;;0.20;28.00;;;-1.51;35.74;98348.47;5006020;28;20469;-78
2022/03/12 00:37:44;;;;;;;6.00;4.20;;;0.20;28.10;;;-1.54;35.91;98338.13;4998203;28;20456;-78
2022/03/12 00:40:14;;;;;;;8.40;4.87;;;0.10;28.00;;;-1.55;36.21;98344.41;5003579;28;20562;-78
2022/03/12 00:42:41;;;;;;;5.30;4.30;;;0.10;28.00;;;-1.56;35.85;98342.72;5001172;28;20456;-77
2022/03/12 00:45:10;;;;;;;6.37;4.17;;;0.10;28.10;;;-1.63;36.13;98345.03;5003088;28;20556;-79
2022/03/12 00:47:37;;;;;;;10.03;4.40;;;0.00;28.10;;;-1.61;36.18;98358.16;5002449;28;20534;-79
2022/03/12 00:50:06;;;;;;;6.10;3.77;;;0.00;28.10;;;-1.90;35.79;98327.84;5004264;28;20831;-78
2022/03/12 00:52:33;;;;;;;6.73;4.83;;;0.00;28.10;;;-1.71;36.19;98363.38;4999450;28;21412;-77
2022/03/12 00:55:01;;;;;;;5.20;4.00;;;-0.10;28.10;;;-1.78;36.47;98357.75;5006812;28;20542;-79
2022/03/12 00:57:28;;;;;;;6.10;4.70;;;-0.10;28.10;;;-1.86;36.71;98357.56;4996259;28;20555;-77
2022/03/12 00:59:55;;;;;;;8.30;4.30;;;-0.20;28.10;;;-1.77;36.35;98362.09;5004441;28;20565;-78
2022/03/12 01:02:22;;;;;;;5.53;4.40;;;-0.20;28.20;;;-1.90;36.58;98358.78;5007581;28;20506;-78
2022/03/12 01:04:50;;;;;;;8.07;4.40;;;-0.20;28.20;;;-1.92;36.90;98366.00;5001672;28;20921;-78
2022/03/12 01:07:17;;;;;;;4.73;4.27;;;-0.20;28.30;;;-1.94;36.85;98363.50;5003717;28;20937;-78
2022/03/12 01:09:44;;;;;;;8.40;4.37;;;-0.30;28.30;;;-1.98;36.85;98361.25;5001335;28;20455;-77
2022/03/12 01:12:13;;;;;;;5.17;4.00;;;-0.30;28.40;;;-2.05;37.40;98361.72;5000678;28;20460;-78
2022/03/12 01:14:41;;;;;;;8.03;4.37;;;-0.40;28.40;;;-2.05;37.35;98367.03;5003526;28;20782;-79
2022/03/12 01:17:08;;;;;;;5.10;3.80;;;-0.40;28.40;;;-2.13;37.65;98359.72;5005784;28;20478;-79
2022/03/12 01:19:35;;;;;;;5.37;3.60;;;-0.50;28.40;;;-2.07;37.24;98362.84;5006080;28;20495;-78
2022/03/12 01:22:03;;;;;;;5.67;4.10;;;-0.40;28.50;;;-2.16;37.72;98351.19;5007281;28;20451;-76
2022/03/12 01:24:31;;;;;;;5.37;4.40;;;-0.50;28.50;;;-2.16;37.38;98364.44;5006272;28;20582;-79
2022/03/12 01:26:58;;;;;;;8.83;3.80;;;-0.50;28.50;;;-2.14;37.54;98354.56;5008956;28;20979;-79
2022/03/12 01:29:27;;;;;;;6.90;4.80;;;-0.50;28.60;;;-2.26;37.64;98356.41;5008366;28;20831;-80
2022/03/12 01:31:54;;;;;;;5.50;3.57;;;-0.60;28.50;;;-2.19;37.71;98360.22;5003378;28;20457;-78
2022/03/12 01:34:21;;;;;;;5.37;3.93;;;-0.60;28.60;;;-2.18;37.79;98358.44;5018180;28;20525;-78
2022/03/12 01:36:50;;;;;;;4.63;4.10;;;-0.60;28.60;;;-2.22;37.38;98359.63;5004116;28;20459;-77
2022/03/12 01:39:17;;;;;;;6.00;3.90;;;-0.60;28.60;;;-2.29;37.64;98354.84;5000326;28;20472;-77
2022/03/12 01:41:45;;;;;;;8.87;4.67;;;-0.60;28.60;;;-2.30;37.93;98355.81;5002731;28;21031;-78
2022/03/12 01:44:14;;;;;;;5.93;4.00;;;-0.70;28.60;;;-2.34;37.88;98361.47;5001119;28;20917;-77
2022/03/12 01:46:48;;;;;;;8.60;4.47;;;-0.70;28.70;;;-2.40;38.39;98367.28;5006985;28;20458;-78
2022/03/12 01:49:18;;;;;;;6.90;5.00;;;-0.70;28.70;;;-2.44;37.97;98346.34;5003549;28;20513;-77
2022/03/12 01:51:48;;;;;;;13.43;4.57;;;-0.70;28.70;;;-2.42;38.23;98360.31;5004334;28;20964;-77
2022/03/12 01:54:24;;;;;;;7.63;5.10;;;-0.70;28.80;;;-2.45;38.17;98357.06;4999226;28;20551;-78
2022/03/12 01:56:53;;;;;;;12.30;5.17;;;-0.80;28.70;;;-2.61;38.25;98345.06;5002448;28;20541;-77
2022/03/12 01:59:21;;;;;;;7.83;4.90;;;-0.80;28.80;;;-2.50;38.88;98368.00;5009369;28;20566;-77
2022/03/12 02:01:51;;;;;;;9.03;4.73;;;-0.80;28.90;;;-2.53;38.47;98356.81;5019298;28;20832;-77
2022/03/12 02:04:20;;;;;;;5.83;4.70;;;-0.90;28.90;;;-2.52;39.19;98355.84;5002050;28;20886;-77
2022/03/12 02:06:48;;;;;;;6.63;4.40;;;-0.80;29.10;;;-2.60;39.05;98359.97;5002431;28;20891;-77
2022/03/12 02:09:16;;;;;;;7.70;4.70;;;-0.90;29.00;;;-2.63;39.51;98354.09;4998137;28;20461;-76
2022/03/12 02:11:49;;;;;;;5.70;4.20;;;-1.00;29.00;;;-2.65;39.11;98356.88;5003112;28;20455;-77
2022/03/12 02:14:18;;;;;;;7.10;4.73;;;-1.00;29.10;;;-2.67;39.13;98360.59;4996401;28;20467;-76
2022/03/12 02:16:51;;;;;;;5.40;4.50;;;-1.00;29.10;;;-2.73;39.60;98361.91;5005017;28;20458;-76
2022/03/12 02:19:19;;;;;;;4.73;3.60;;;-1.00;29.30;;;-2.71;39.25;98357.34;5003067;28;20474;-78
2022/03/12 02:21:52;;;;;;;4.73;4.10;;;-1.00;29.30;;;-2.73;39.74;98362.78;4999773;28;21022;-78
2022/03/12 02:24:23;;;;;;;11.50;5.37;;;-1.10;29.20;;;-2.80;39.14;98350.16;5006526;28;20536;-78
2022/03/12 02:26:51;;;;;;;6.97;4.80;;;-1.10;29.20;;;-2.81;39.77;98351.94;5007484;28;20550;-78
2022/03/12 02:29:21;;;;;;;6.27;4.50;;;-1.10;29.30;;;-2.78;39.71;98349.06;5004981;28;21046;-77
2022/03/12 02:31:50;;;;;;;6.60;4.53;;;-1.10;29.30;;;-2.75;39.56;98345.34;5005690;28;20536;-78
2022/03/12 02:34:23;;;;;;;4.73;4.00;;;-1.10;29.30;;;-2.75;39.61;98342.69;5002460;28;20476;-78
2022/03/12 02:36:52;;;;;;;8.50;5.10;;;-1.10;29.30;;;-2.72;39.62;98342.44;5001480;28;20464;-78
2022/03/12 02:39:22;;;;;;;5.87;4.30;;;-1.00;29.30;;;-2.76;39.56;98336.53;5002141;28;20471;-76
2022/03/12 02:41:49;;;;;;;6.73;4.83;;;-1.10;29.30;;;-2.76;40.01;98341.84;5005391;28;21395;-76
2022/03/12 02:44:20;;;;;;;8.30;4.17;;;-1.10;29.30;;;-2.81;39.57;98338.72;5002324;28;20532;-77
2022/03/12 02:47:14;;;;;;;6.17;4.87;;;-1.10;29.40;;;-2.83;40.19;98345.09;5005212;28;20475;-78
2022/03/12 02:49:47;;;;;;;6.73;4.80;;;-1.10;29.50;;;-2.83;39.96;98347.75;5003964;28;20455;-78
2022/03/12 02:52:16;;;;;;;6.17;4.57;;;-1.20;29.40;;;-2.79;40.25;98346.56;5003308;28;20460;-77
2022/03/12 02:54:46;;;;;;;5.93;4.47;;;-1.20;29.50;;;-2.83;40.36;98343.31;4999956;28;20861;-77
2022/03/12 02:57:13;;;;;;;6.93;4.73;;;-1.20;29.50;;;-2.93;40.31;98340.56;5004317;28;20472;-78
2022/03/12 02:59:43;;;;;;;7.50;4.20;;;-1.20;29.50;;;-2.91;40.12;98335.97;5010754;28;20530;-78
2022/03/12 03:02:12;;;;;;;9.93;5.93;;;-1.20;29.50;;;-2.87;39.86;98339.22;5009844;28;20478;-78
2022/03/12 03:04:40;;;;;;;8.20;4.53;;;-1.20;29.50;;;-2.94;40.52;98349.44;4999317;28;20468;-78
2022/03/12 03:07:08;;;;;;;5.53;4.13;;;-1.20;29.60;;;-2.94;40.24;98344.16;5002615;28;20834;-79
2022/03/12 03:09:36;;;;;;;6.97;4.93;;;-1.30;29.60;;;-2.99;40.35;98339.22;5003183;28;20471;-76
2022/03/12 03:12:09;;;;;;;6.70;4.43;;;-1.30;29.60;;;-2.94;40.63;98349.44;5004954;28;20491;-78
2022/03/12 03:14:43;;;;;;;7.20;4.93;;;-1.30;29.70;;;-3.04;40.91;98348.47;5002758;28;20464;-79
2022/03/12 03:17:12;;;;;;;8.77;4.97;;;-1.30;29.80;;;-2.98;41.01;98353.28;5004699;28;20568;-79
2022/03/12 03:19:39;;;;;;;7.70;4.93;;;-1.30;29.90;;;-2.99;40.95;98351.59;5018891;28;20464;-78
2022/03/12 03:22:08;;;;;;;8.00;4.23;;;-1.30;29.90;;;-2.93;41.00;98347.63;5004892;28;20516;-78
2022/03/12 03:24:35;;;;;;;9.23;4.90;;;-1.30;30.00;;;-3.31;40.91;98288.88;5003509;28;20495;-79
2022/03/12 03:27:05;;;;;;;5.50;4.87;;;-1.30;30.00;;;-2.96;40.86;98347.88;5005366;28;20459;-76
2022/03/12 03:29:34;;;;;;;6.13;5.10;;;-1.30;29.90;;;-2.96;40.95;98347.88;5005770;28;20455;-76
2022/03/12 03:32:02;;;;;;;8.90;4.60;;;-1.30;29.90;;;-3.22;41.01;98306.69;5024229;28;20452;-77
2022/03/12 03:34:31;;;;;;;6.83;5.00;;;-1.30;29.80;;;-2.94;41.35;98344.16;5002235;28;20459;-77
2022/03/12 03:36:59;;;;;;;6.40;4.20;;;-1.30;29.90;;;-2.95;40.65;98347.78;5011784;28;20479;-77
2022/03/12 03:39:26;;;;;;;12.63;5.47;;;-1.30;30.00;;;-2.90;41.52;98342.09;5020643;28;21010;-78
2022/03/12 03:41:54;;;;;;;7.03;4.80;;;-1.30;30.00;;;-2.91;40.68;98346.56;5015258;28;20480;-77
2022/03/12 03:44:28;;;;;;;9.60;5.30;;;-1.30;29.90;;;-3.00;41.12;98358.69;5008391;28;20533;-77
2022/03/12 03:46:56;;;;;;;7.70;5.60;;;-1.20;29.90;;;-3.24;41.49;98342.09;5009126;28;20471;-78
2022/03/12 03:49:24;;;;;;;5.60;4.67;;;-1.40;29.90;;;-3.20;41.46;98360.25;4990187;28;20637;-78
2022/03/12 03:51:52;;;;;;;6.37;4.97;;;-1.50;30.00;;;-3.36;41.22;98313.03;5010841;28;20454;-76
2022/03/12 03:54:18;;;;;;;6.93;4.60;;;-1.40;30.00;;;-2.92;41.16;98368.69;5005729;28;21183;-77
2022/03/12 03:56:45;;;;;;;7.20;4.83;;;-1.40;30.00;;;-2.88;40.65;98362.19;5007426;28;20506;-77
2022/03/12 03:59:12;;;;;;;8.70;5.53;;;-1.30;30.00;;;-2.89;40.80;98368.44;5008198;28;20551;-79
2022/03/12 04:01:41;;;;;;;6.77;5.10;;;-1.20;29.90;;;-2.86;40.64;98370.81;5010156;28;20466;-75
2022/03/12 04:04:12;;;;;;;5.73;4.60;;;-1.20;30.00;;;-2.83;40.73;98366.25;5012105;28;20467;-77
2022/03/12 04:06:39;;;;;;;6.53;4.70;;;-1.20;29.90;;;-2.85;40.89;98367.22;5009293;28;20490;-78
2022/03/12 04:09:06;;;;;;;7.17;4.70;;;-1.20;29.80;;;-2.77;40.38;98366.59;5004340;28;20942;-77
2022/03/12 04:11:34;;;;;;;7.03;4.60;;;-1.10;29.80;;;-2.82;40.72;98374.06;5002762;28;20479;-77
2022/03/12 04:14:05;;;;;;;6.57;5.20;;;-1.10;29.80;;;-2.85;40.95;98366.38;5001822;28;21004;-77
2022/03/12 04:16:33;;;;;;;6.90;4.47;;;-1.20;29.80;;;-3.03;41.51;98376.59;5003405;28;20469;-77
2022/03/12 04:19:07;;;;;;;8.03;4.60;;;-1.30;30.00;;;-2.86;41.25;98378.75;5000302;28;20891;-77
2022/03/12 04:21:34;;;;;;;6.10;4.43;;;-1.20;30.00;;;-2.82;41.12;98378.50;5004260;28;21042;-78
2022/03/12 04:24:01;;;;;;;10.60;4.43;;;-1.20;30.00;;;-2.83;40.83;98372.41;4999408;28;20542;-78
2022/03/12 04:26:30;;;;;;;5.90;4.80;;;-1.20;30.00;;;-2.81;41.31;98390.78;5006939;28;20462;-77
2022/03/12 04:28:58;;;;;;;9.23;5.00;;;-1.20;30.00;;;-3.11;40.75;98339.34;5005008;28;20569;-77
2022/03/12 04:31:25;;;;;;;9.77;5.10;;;-1.20;29.90;;;-2.90;40.79;98392.34;5015836;28;20451;-78
2022/03/12 04:33:52;;;;;;;9.43;5.70;;;-1.20;29.90;;;-3.02;40.38;98384.44;4997585;28;20522;-78
2022/03/12 04:36:21;;;;;;;8.63;4.20;;;-1.30;29.80;;;-2.94;41.29;98397.06;5004626;28;20463;-78
2022/03/12 04:38:49;;;;;;;11.10;5.10;;;-1.30;29.90;;;-2.92;40.89;98400.41;5001990;28;20468;-78
2022/03/12 04:41:17;;;;;;;6.63;5.30;;;-1.30;30.00;;;-2.94;41.16;98401.47;5003800;28;20483;-77
2022/03/12 04:43:44;;;;;;;10.23;5.00;;;-1.30;29.90;;;-2.94;41.55;98402.34;4999995;28;20468;-78
2022/03/12 04:46:12;;;;;;;6.70;5.03;;;-1.30;30.00;;;-3.10;41.90;98415.06;5004117;28;20491;-78
2022/03/12 04:48:40;;;;;;;7.10;5.10;;;-1.40;30.00;;;-3.06;41.36;98416.50;5000532;28;20459;-80
2022/03/12 04:51:07;;;;;;;7.43;4.63;;;-1.40;30.00;;;-2.96;42.12;98417.47;5001378;28;20451;-77
2022/03/12 04:53:35;;;;;;;6.10;5.17;;;-1.40;30.20;;;-3.01;41.52;98422.28;5004122;28;20461;-80
2022/03/12 04:56:02;;;;;;;7.10;4.80;;;-1.30;30.10;;;-3.36;42.01;98368.53;5001182;28;20509;-77
2022/03/12 04:58:29;;;;;;;5.83;4.67;;;-1.30;30.10;;;-2.98;41.39;98429.97;5016419;28;20599;-77
2022/03/12 05:00:56;;;;;;;6.60;5.40;;;-1.30;30.10;;;-2.95;41.27;98427.09;5003323;28;20582;-77
2022/03/12 05:03:25;;;;;;;5.57;4.63;;;-1.30;30.00;;;-3.00;41.98;98434.53;5003109;28;20553;-75
2022/03/12 05:05:54;;;;;;;6.50;4.70;;;-1.30;30.20;;;-3.09;41.77;98443.19;5025668;28;20459;-77
2022/03/12 05:08:23;;;;;;;5.90;5.07;;;-1.40;30.20;;;-3.00;41.71;98435.38;5005270;28;20547;-79
2022/03/12 05:10:54;;;;;;;8.13;5.30;;;-1.40;30.30;;;-3.06;42.37;98437.66;5003293;28;20468;-77
2022/03/12 05:13:23;;;;;;;8.30;4.53;;;-1.40;30.40;;;-3.04;42.15;98439.22;5004566;28;20459;-77
2022/03/12 05:15:52;;;;;;;8.43;5.03;;;-1.40;30.40;;;-3.05;42.50;98447.28;5000643;28;20463;-78
2022/03/12 05:18:20;;;;;;;7.60;4.93;;;-1.40;30.50;;;-3.07;41.91;98449.19;5001755;28;20541;-78
2022/03/12 05:20:47;;;;;;;5.80;5.07;;;-1.40;30.30;;;-3.03;41.75;98456.78;5001521;28;20475;-77
2022/03/12 05:23:16;;;;;;;9.20;5.27;;;-1.30;30.40;;;-3.01;41.92;98451.34;5002397;28;20559;-76
2022/03/12 05:25:45;;;;;;;9.57;5.23;;;-1.30;30.50;;;-2.99;42.04;98462.66;5004923;28;20976;-78
2022/03/12 05:28:16;;;;;;;6.10;4.90;;;-1.30;30.30;;;-3.01;41.65;98464.56;5023208;28;20448;-79
2022/03/12 05:30:45;;;;;;;5.60;4.67;;;-1.30;30.30;;;-2.93;41.47;98462.19;5001172;28;20451;-78
2022/03/12 05:33:12;;;;;;;6.43;5.23;;;-1.20;30.30;;;-2.99;41.42;98444.16;5002569;28;20464;-79
2022/03/12 05:35:41;;;;;;;5.50;4.33;;;-1.20;30.20;;;-2.87;41.70;98459.06;5009433;28;20482;-76
2022/03/12 05:38:09;;;;;;;8.30;5.50;;;-1.20;30.20;;;-2.82;41.51;98468.44;4999942;28;20440;-76
2022/03/12 05:40:38;;;;;;;6.40;5.07;;;-1.20;30.20;;;-2.91;41.46;98452.34;5003515;28;20614;-76
2022/03/12 05:43:15;;;;;;;7.80;5.07;;;-1.20;30.20;;;-2.85;41.59;98466.91;5002694;28;20582;-78
2022/03/12 05:45:45;;;;;;;7.40;5.30;;;-1.10;30.30;;;-2.79;41.79;98479.63;5006058;28;20947;-78
2022/03/12 05:48:14;;;;;;;5.50;4.50;;;-1.10;30.40;;;-2.78;41.37;98481.31;5010297;28;20591;-77
2022/03/12 05:50:43;;;;;;;9.20;6.23;;;-1.10;30.30;;;-2.78;41.25;98483.13;5015887;28;20519;-78
2022/03/12 05:53:11;;;;;;;9.53;5.00;;;-1.10;30.20;;;-2.72;41.30;98486.16;5006173;28;20546;-79
2022/03/12 05:55:39;;;;;;;7.23;5.50;;;-1.00;30.20;;;-2.59;41.17;98487.81;5004102;28;20494;-78
2022/03/12 05:58:07;;;;;;;6.00;5.23;;;-0.90;30.20;;;-2.61;41.04;98497.69;5008565;28;20448;-79
2022/03/12 06:00:35;;;;;;;7.03;5.43;;;-0.90;30.10;;;-2.71;40.70;98471.09;5008290;28;20470;-78
2022/03/12 06:03:03;;;;;;;8.53;5.40;;;-0.90;30.00;;;-2.53;40.84;98491.78;5006805;28;20483;-79
2022/03/12 06:05:31;;;;;;;10.73;5.37;;;-0.90;30.00;;;-2.40;40.34;98489.84;5003980;28;20469;-79
2022/03/12 06:07:59;;;;;;;8.27;5.50;;;-0.80;30.10;;;-2.42;40.55;98483.84;5004221;28;20455;-79
2022/03/12 06:10:31;;;;;;;6.50;5.07;;;-0.70;30.00;;;-2.32;40.96;98497.19;5014536;28;20936;-79
2022/03/12 06:12:58;;;;;;;7.00;4.67;;;-0.60;30.20;;;-2.26;40.37;98501.16;5000472;28;20460;-79
2022/03/12 06:15:27;;;;;;;5.40;4.90;;;-0.60;30.00;;;-2.29;39.98;98496.94;4999162;28;21008;-79
2022/03/12 06:17:55;;;;;;;6.50;4.57;;;-0.60;29.90;;;-2.28;40.26;98496.84;5021788;28;20542;-78
2022/03/12 06:20:24;;;;;;;7.33;5.20;;;-0.60;30.00;;;-2.35;40.14;98478.91;5022635;28;20578;-74
2022/03/12 06:22:53;;;;;;;6.43;5.00;;;-0.50;29.90;;;-2.13;40.47;98493.94;5009169;28;20559;-81
2022/03/12 06:25:23;;;;;;;9.90;4.90;;;-0.50;29.90;;;-2.07;39.96;98501.38;5009629;28;20538;-82
2022/03/12 06:27:54;;;;;;;5.87;5.03;;;-0.40;29.90;;;-2.07;39.91;98501.38;5024627;28;20919;-77
2022/03/12 06:30:24;;;;;;;6.20;5.27;;;-0.40;29.80;;;-1.94;39.29;98503.03;5001013;28;20466;-78
2022/03/12 06:32:52;;;;;;;8.27;4.93;;;-0.30;29.80;;;-1.95;39.41;98501.34;5021583;28;20545;-78
2022/03/12 06:35:19;;;;;;;6.77;4.90;;;-0.20;29.70;;;-1.93;39.09;98499.41;5012059;28;20594;-79
2022/03/12 06:37:48;;;;;;;5.77;4.47;;;-0.20;29.60;;;-1.89;39.20;98508.81;5008018;28;20547;-79
2022/03/12 06:40:18;;;;;;;8.43;5.47;;;-0.20;29.60;;;-2.06;39.03;98473.91;5008150;28;20456;-82
2022/03/12 06:42:47;;;;;;;8.60;5.33;;;-0.10;29.60;;;-1.90;39.49;98513.25;5008391;28;20458;-76
2022/03/12 06:45:16;;;;;;;7.00;5.43;;;-0.20;29.60;;;-1.76;39.39;98517.44;5010320;28;20495;-76
2022/03/12 06:47:46;;;;;;;7.47;5.13;;;-0.10;29.60;;;-1.58;39.09;98511.63;5021254;28;20455;-75
2022/03/12 06:50:16;;;;;;;6.73;5.10;;;0.00;29.70;;;-1.42;38.96;98508.53;5009287;28;20461;-77
2022/03/12 06:52:47;;;;;;;7.20;4.90;;;0.20;29.70;;;-1.41;38.19;98512.03;5010763;28;20454;-77
2022/03/12 06:55:17;;;;;;;8.97;5.73;;;0.30;29.50;;;-1.55;37.83;98506.06;5009817;28;20462;-77
2022/03/12 06:57:46;;;;;;;7.90;5.00;;;0.20;29.30;;;-1.45;38.07;98512.28;5007957;28;20513;-75
2022/03/12 07:00:17;;;;;;;5.97;4.67;;;0.20;29.40;;;-1.23;37.82;98518.47;5010833;28;20967;-76
2022/03/12 07:02:44;;;;;;;7.60;5.30;;;0.40;29.50;;;-1.29;37.77;98513.66;5022854;28;20542;-78
2022/03/12 07:05:12;;;;;;;7.33;5.20;;;0.40;29.30;;;-1.25;38.18;98485.94;5003991;28;20471;-79
2022/03/12 07:07:39;;;;;;;7.93;5.30;;;0.50;29.50;;;-1.29;37.98;98511.00;5005942;28;20561;-76
2022/03/12 07:10:08;;;;;;;7.37;5.40;;;0.50;29.40;;;-1.27;38.10;98513.53;5005107;28;23966;-75
2022/03/12 07:12:38;;;;;;;6.20;5.30;;;0.50;29.40;;;-1.24;38.08;98511.47;5003083;28;20955;-72
2022/03/12 07:15:06;;;;;;;6.20;5.17;;;0.40;29.40;;;-1.15;38.07;98509.88;5009304;28;20576;-74
2022/03/12 07:17:34;;;;;;;7.97;4.97;;;0.50;29.50;;;-1.11;37.99;98513.13;5016584;28;20489;-71
2022/03/12 07:20:03;;;;;;;9.20;5.17;;;0.50;29.50;;;-0.95;38.03;98513.50;5006471;28;20460;-73
2022/03/12 07:22:31;;;;;;;6.40;4.83;;;0.60;29.50;;;-0.76;37.34;98512.78;5009668;28;20523;-73
2022/03/12 07:24:58;;;;;;;6.93;5.40;;;0.70;29.40;;;-1.13;37.57;98517.72;5004220;28;20478;-72
2022/03/12 07:27:25;;;;;;;7.83;4.93;;;0.60;29.20;;;-1.07;37.80;98514.53;5004801;28;21244;-73
2022/03/12 07:29:54;;;;;;;6.37;4.70;;;0.60;29.30;;;-1.03;37.51;98518.59;5006080;28;20543;-72
2022/03/12 07:32:21;;;;;;;7.43;5.20;;;0.60;29.30;;;-0.92;37.91;98513.22;5007216;28;21050;-81
2022/03/12 07:34:49;;;;;;;5.73;4.63;;;0.70;29.50;;;-1.05;37.53;98508.13;5010222;28;20541;-73
2022/03/12 07:37:16;;;;;;;5.47;4.40;;;0.60;29.20;;;-1.05;37.29;98491.38;4997432;28;20519;-73
2022/03/12 07:39:43;;;;;;;8.73;5.20;;;0.70;29.20;;;-1.14;36.64;98487.69;5001363;28;20456;-74
2022/03/12 07:42:10;;;;;;;6.93;5.00;;;0.60;29.00;;;-0.95;36.77;98516.16;4998590;28;20566;-73
2022/03/12 07:44:37;;;;;;;4.63;4.20;;;0.70;29.00;;;-0.77;36.06;98520.88;5007628;28;20466;-73
2022/03/12 07:47:06;;;;;;;8.93;5.00;;;0.80;28.80;;;-0.62;36.01;98522.22;5004113;28;20586;-76
2022/03/12 07:49:34;;;;;;;6.77;4.60;;;0.90;28.80;;;-0.70;35.82;98507.91;5004829;28;20468;-74
2022/03/12 07:52:01;;;;;;;7.33;5.13;;;1.00;28.70;;;-0.88;35.76;98461.59;5006410;28;20463;-75
2022/03/12 07:54:28;;;;;;;6.80;4.93;;;1.10;28.60;;;-0.70;35.48;98471.59;5005546;28;20639;-76
2022/03/12 07:56:55;;;;;;;6.23;4.60;;;1.20;28.60;;;-0.31;35.13;98519.56;5003845;28;20864;-74
2022/03/12 07:59:22;;;;;;;9.93;5.20;;;1.30;28.50;;;-0.20;37.04;98528.41;4998321;28;20547;-73
2022/03/12 08:01:49;;;;;;;8.70;4.73;;;1.30;28.60;;;0.03;35.04;98529.06;5006994;28;20480;-73
2022/03/12 08:04:17;;;;;;;6.77;4.70;;;1.50;28.70;;;-0.07;34.47;98528.16;5006859;28;20469;-73
2022/03/12 08:06:45;;;;;;;6.13;4.50;;;1.50;28.30;;;0.07;34.64;98525.13;5007868;28;20465;-72
2022/03/12 08:09:12;;;;;;;7.43;4.80;;;1.60;28.40;;;0.09;34.25;98519.69;5004949;28;20510;-72
2022/03/12 08:11:38;;;;;;;6.53;4.80;;;1.70;28.30;;;0.11;33.96;98520.41;5004120;28;20541;-72
2022/03/12 08:14:08;;;;;;;8.67;5.57;;;1.70;28.20;;;0.21;33.91;98525.72;5004218;28;20932;-72
2022/03/12 08:16:37;;;;;;;7.03;4.63;;;1.80;28.10;;;0.32;34.86;98519.44;5003045;28;20485;-73
2022/03/12 08:19:08;;;;;;;5.37;4.60;;;1.90;28.30;;;0.48;33.41;98516.25;4999465;28;20485;-73
2022/03/12 08:21:37;;;;;;;7.73;4.93;;;2.00;28.30;;;0.60;33.87;98522.28;4998597;28;20570;-73
2022/03/12 08:24:06;;;;;;;8.70;5.57;;;2.10;28.50;;;0.35;34.04;98452.72;5000475;28;20529;-71
2022/03/12 08:26:34;;;;;;;5.53;4.23;;;2.30;28.90;;;0.67;33.95;98520.72;5014777;28;21217;-73
2022/03/12 08:29:01;;;;;;;5.73;4.60;;;2.30;28.60;;;0.84;33.67;98517.41;5006044;28;20450;-74
2022/03/12 08:31:29;;;;;;;6.27;5.30;;;2.30;28.40;;;1.02;35.03;98514.00;5003814;28;20553;-72
2022/03/12 08:33:56;;;;;;;6.20;4.50;;;2.50;28.80;;;0.95;33.85;98518.22;5003818;28;20461;-73
2022/03/12 08:36:23;;;;;;;9.03;5.00;;;2.40;28.40;;;1.07;33.06;98522.41;5006614;28;20546;-73
2022/03/12 08:38:51;;;;;;;6.13;4.63;;;2.60;28.30;;;1.19;34.59;98509.75;5004758;28;20461;-74
2022/03/12 08:41:21;;;;;;;6.23;4.93;;;2.70;29.00;;;1.44;33.63;98511.94;5006909;28;20544;-74
2022/03/12 08:43:49;;;;;;;6.60;5.10;;;2.80;28.70;;;1.28;32.61;98521.38;5013416;28;20455;-74
2022/03/12 08:46:16;;;;;;;5.23;4.53;;;2.80;28.10;;;1.49;32.44;98523.03;5004367;28;20497;-74
2022/03/12 08:48:43;;;;;;;7.20;4.90;;;2.90;28.20;;;1.66;32.31;98516.06;5005490;28;20466;-73
2022/03/12 08:51:11;;;;;;;10.83;4.97;;;3.00;27.90;;;1.77;31.97;98507.09;5015369;28;20457;-73
2022/03/12 08:53:38;;;;;;;5.90;4.80;;;3.20;28.20;;;1.95;32.36;98507.97;5019854;28;20852;-72
2022/03/12 08:56:08;;;;;;;6.70;5.20;;;3.40;28.40;;;1.94;33.04;98508.97;5002637;28;20462;-73
2022/03/12 08:58:36;;;;;;;7.13;5.30;;;3.40;28.20;;;2.07;31.59;98499.78;5004104;28;20497;-73
2022/03/12 09:01:08;;;;;;;7.10;4.37;;;3.50;28.10;;;2.17;31.63;98505.06;5004770;28;20458;-72
2022/03/12 09:03:35;;;;;;;4.80;4.03;;;3.60;28.10;;;2.20;30.71;98497.59;5006241;28;20470;-74
2022/03/12 09:06:04;;;;;;;7.87;5.30;;;3.70;27.80;;;2.30;31.34;98480.69;5003363;28;20463;-74
2022/03/12 09:08:31;;;;;;;5.47;4.43;;;3.80;27.90;;;2.58;31.14;98494.81;5001739;28;20541;-73
2022/03/12 09:10:59;;;;;;;5.63;5.03;;;3.90;27.90;;;2.67;30.29;98495.72;5015898;28;20462;-72
2022/03/12 09:13:28;;;;;;;5.50;4.73;;;4.10;27.60;;;2.58;30.20;98437.94;5003548;28;20497;-73
2022/03/12 09:15:56;;;;;;;6.73;5.10;;;4.20;27.40;;;2.91;29.50;98488.91;5004458;28;20470;-74
2022/03/12 09:18:23;;;;;;;8.50;4.40;;;4.40;27.40;;;3.08;29.54;98484.53;4999917;28;21014;-74
2022/03/12 09:20:51;;;;;;;5.77;4.63;;;4.50;27.30;;;3.20;28.91;98487.78;5003225;28;21079;-73
2022/03/12 09:23:21;;;;;;;5.83;4.30;;;4.50;27.20;;;3.21;28.63;98473.44;5007687;28;20511;-72
2022/03/12 09:25:51;;;;;;;6.20;4.67;;;4.60;26.80;;;3.46;28.62;98461.06;5003997;28;21054;-75
2022/03/12 09:28:19;;;;;;;7.23;4.90;;;4.80;27.10;;;3.50;27.85;98457.09;5003694;28;20479;-73
2022/03/12 09:30:51;;;;;;;7.40;4.83;;;5.00;26.90;;;3.79;27.12;98471.06;5008272;28;20459;-73
2022/03/12 09:33:20;;;;;;;8.53;4.70;;;5.20;26.80;;;3.91;27.26;98474.28;5004852;28;20459;-75
2022/03/12 09:35:48;;;;;;;4.70;3.80;;;5.20;26.50;;;4.16;26.71;98471.69;5000807;28;20501;-72
2022/03/12 09:38:16;;;;;;;5.40;4.07;;;5.50;26.70;;;4.21;26.36;98467.53;5004220;28;20455;-74
2022/03/12 09:40:45;;;;;;;5.57;4.97;;;5.60;26.60;;;4.22;26.84;98463.88;5002993;28;20443;-73
2022/03/12 09:43:13;;;;;;;5.63;4.80;;;5.60;26.30;;;4.36;26.89;98457.03;5002879;28;20483;-74
2022/03/12 09:45:40;;;;;;;7.03;4.80;;;5.70;26.40;;;4.53;27.79;98465.91;5003715;28;20528;-73
2022/03/12 09:48:10;;;;;;;6.33;4.80;;;5.80;26.80;;;4.59;26.42;98467.09;4999280;28;20569;-73
2022/03/12 09:50:38;;;;;;;7.23;4.97;;;5.90;26.30;;;4.66;25.93;98462.75;5019413;28;20486;-74
2022/03/12 09:53:06;;;;;;;5.00;4.50;;;6.00;26.20;;;4.64;25.85;98458.56;5008983;28;20494;-78
2022/03/12 09:55:34;;;;;;;5.80;4.10;;;6.00;26.20;;;4.60;26.65;98462.56;5022291;28;20458;-73
2022/03/12 09:58:01;;;;;;;6.43;5.00;;;6.00;26.10;;;4.89;25.87;98467.44;5004452;28;20457;-71
2022/03/12 10:00:29;;;;;;;6.90;4.37;;;6.20;26.70;;;4.72;25.28;98458.56;5005774;28;20487;-72
2022/03/12 10:02:56;;;;;;;11.63;5.10;;;6.10;26.10;;;4.97;26.81;98458.56;5009533;28;20989;-73
2022/03/12 10:05:24;;;;;;;6.40;5.37;;;6.20;26.40;;;5.04;26.80;98448.03;5007713;28;20475;-73
2022/03/12 10:07:51;;;;;;;6.90;5.20;;;6.40;26.90;;;5.21;26.16;98443.47;5010430;28;20868;-72
2022/03/12 10:10:22;;;;;;;7.60;4.80;;;6.60;26.90;;;5.32;25.88;98464.53;5007959;28;20479;-73
2022/03/12 10:12:51;;;;;;;6.13;4.70;;;6.60;26.50;;;4.78;26.30;98428.47;5014106;28;21022;-73
2022/03/12 10:15:19;;;;;;;6.73;5.20;;;6.40;26.00;;;4.91;25.83;98452.03;5016526;28;20469;-71
2022/03/12 10:17:48;;;;;;;6.77;5.03;;;6.30;26.10;;;5.07;26.21;98447.69;5015815;28;20487;-71
2022/03/12 10:20:16;;;;;;;7.90;5.50;;;6.40;26.40;;;4.95;25.71;98439.16;5016601;28;20516;-73
2022/03/12 10:22:46;;;;;;;7.43;4.73;;;6.30;26.10;;;5.19;26.46;98434.75;5007270;28;20471;-80
2022/03/12 10:25:14;;;;;;;5.93;4.33;;;6.50;26.80;;;5.50;25.99;98429.50;5029536;28;20454;-78
2022/03/12 10:27:42;;;;;;;7.40;5.73;;;6.70;26.60;;;5.53;25.71;98436.34;5005778;28;20491;-79